02 Jul 2020 16:47 UTC 2020184+16:47 UTC

Overview Datums Bench Marks Data Query Site Visit Daily QC Messages Attributes

171: National Park Service - Bird Island

27° 29' 4" N   97° 19' 5" W
NPSBI
United States National Park Service United States National Park Service

Station Information

National Park Service - Bird Island
National Park Service - Bird Island
more pictures
 
Station Name:National Park Service - Bird Island
DNR ID:171
Location:27° 29' 4" N, 97° 19' 5" W

Water Level Forecasts

Latest Observations

Series Metric English Marine Observed at
Water Temperature 29.7 °C 85.5 °F 85.5 °F Jul 02 11:00 CDT
00h12m ago
Salinity 38.600 psu 38.600 psu 38.600 psu Jul 02 11:00 CDT
00h12m ago
pH 8.61 pH 8.61 pH 8.61 pH Jul 02 11:00 CDT
00h12m ago
Turbidity 5 ntu 5 ntu 5 ntu Jul 02 11:00 CDT
00h12m ago
Dissolved Oxygen 6.96 mg/L 0.000434 lb/ft3 0.000434 lb/ft3 Jul 02 11:00 CDT
00h12m ago

Maps

National Park Service - Bird Island
All Stations in Area
Entire Network
 

Recent Observations

Date/Time Water
Temp (°F)
Sal (psu) pH (pH) Turb (ntu) DO (lb/ft3)
Jul 02 11:00 CDT 85.5 38.600 8.61 5 0.000434
Jul 02 10:00 CDT 84.7 38.600 8.55 5 0.000364
Jul 02 09:00 CDT 84.2 38.600 8.51 5 0.000318
Jul 02 08:00 CDT 84.0 38.600 8.48 5 0.000268
Jul 02 07:00 CDT 84.0 38.700 8.48 5 0.000268
Jul 02 06:00 CDT 84.4 38.700 8.49 6 0.000274
Jul 02 05:00 CDT 84.7 38.800 8.50 6 0.000298
Jul 02 04:00 CDT 84.7 38.800 8.50 6 0.000291
Jul 02 03:00 CDT 85.1 38.900 8.54 6 0.000298
Jul 02 02:00 CDT 85.3 39.000 8.57 5 0.000314
Jul 02 01:00 CDT 85.6 39.200 8.59 5 0.000326
Jul 02 00:00 CDT 86.0 39.300 8.64 5 0.000338
Jul 01 23:00 CDT 86.5 39.400 8.67 5 0.000348
Jul 01 22:00 CDT 87.1 39.400 8.69 5 0.000375
Jul 01 21:00 CDT 87.6 39.400 8.71 5 0.000403
Jul 01 20:00 CDT 88.2 39.400 8.73 5 0.000448
Jul 01 19:00 CDT 88.9 39.400 8.74 5 0.000493
Jul 01 18:00 CDT 89.2 39.400 8.73 6 0.000524
Jul 01 17:00 CDT 89.6 39.500 8.73 6 0.000561
Jul 01 16:00 CDT 89.4 39.500 8.71 6 0.000568
Jul 01 15:00 CDT 88.7 39.500 8.68 6 0.000568
Jul 01 14:00 CDT 88.0 39.500 8.62 7 0.000526
Jul 01 13:00 CDT 86.9 39.600 8.54 8 0.000446
Jul 01 12:00 CDT 86.2 39.600 8.54 11 0.000444
Jul 01 11:00 CDT 85.3 39.400 8.60 6 0.000453

Historical Data Availability